createdAt,value
2022-12-01T00:03:09.550Z,5.38
2022-12-01T00:08:30.897Z,5.36
2022-12-01T00:13:51.275Z,5.49
2022-12-01T00:19:11.770Z,5.53
2022-12-01T00:24:32.082Z,5.60
2022-12-01T00:29:52.609Z,5.66
2022-12-01T00:35:14.378Z,5.68
2022-12-01T00:40:34.921Z,5.67
2022-12-01T00:45:59.283Z,5.65
2022-12-01T00:51:19.755Z,5.64
2022-12-01T00:56:40.561Z,5.69
2022-12-01T01:02:02.496Z,5.71
2022-12-01T01:07:23.402Z,5.70
2022-12-01T01:12:44.024Z,5.77
2022-12-01T01:18:06.241Z,5.70
2022-12-01T01:23:27.108Z,5.64
2022-12-01T01:28:48.243Z,5.64
2022-12-01T01:34:08.920Z,5.63
2022-12-01T01:39:29.372Z,5.59
2022-12-01T01:44:56.842Z,5.55
2022-12-01T01:50:20.638Z,5.51
2022-12-01T01:55:40.958Z,5.46
2022-12-01T02:01:02.134Z,5.45
2022-12-01T02:06:23.884Z,5.40
2022-12-01T02:12:03.323Z,5.36
2022-12-01T02:17:41.855Z,5.37
2022-12-01T02:23:05.536Z,5.35
2022-12-01T02:28:52.664Z,5.31
2022-12-01T02:34:21.835Z,5.23
2022-12-01T02:39:55.526Z,5.20
2022-12-01T02:46:02.877Z,5.20
2022-12-01T02:51:29.092Z,5.15
2022-12-01T02:56:53.762Z,5.12
2022-12-01T03:02:42.164Z,5.15
2022-12-01T03:08:26.789Z,5.07
2022-12-01T03:14:27.059Z,5.06
2022-12-01T03:20:00.853Z,5.05
2022-12-01T03:25:26.283Z,5.03
2022-12-01T03:30:50.998Z,5.10
2022-12-01T03:36:35.212Z,5.12
2022-12-01T03:42:04.887Z,5.15
2022-12-01T03:47:32.115Z,5.14
2022-12-01T03:53:22.139Z,5.17
2022-12-01T03:58:47.244Z,5.14
2022-12-01T04:04:11.441Z,5.14
2022-12-01T04:09:31.978Z,5.22
2022-12-01T04:14:52.463Z,5.18
2022-12-01T04:20:14.957Z,5.17
2022-12-01T04:25:36.449Z,5.18
2022-12-01T04:30:57.009Z,5.21
2022-12-01T04:36:17.631Z,5.25
2022-12-01T04:41:38.077Z,5.23
2022-12-01T04:46:58.840Z,5.26
2022-12-01T04:52:19.382Z,5.29
2022-12-01T04:57:41.394Z,5.26
2022-12-01T05:03:01.890Z,5.27
2022-12-01T05:08:22.583Z,5.27
2022-12-01T05:13:45.407Z,5.28
2022-12-01T05:19:25.088Z,5.32
2022-12-01T05:24:45.695Z,5.29
2022-12-01T05:30:07.020Z,5.28
2022-12-01T05:35:27.484Z,5.30
2022-12-01T05:40:55.951Z,5.29
2022-12-01T05:46:16.727Z,5.29
2022-12-01T05:51:37.495Z,5.29
2022-12-01T05:56:58.038Z,5.26
2022-12-01T06:02:18.454Z,5.27
2022-12-01T06:07:40.300Z,5.30
2022-12-01T06:13:01.089Z,5.32
2022-12-01T06:18:21.939Z,5.31
2022-12-01T06:23:42.535Z,5.38
2022-12-01T06:29:02.947Z,5.37
2022-12-01T06:34:23.678Z,5.37
2022-12-01T06:39:44.383Z,5.32
2022-12-01T06:45:05.439Z,5.31
2022-12-01T06:50:26.314Z,5.35
2022-12-01T06:55:47.183Z,5.37
2022-12-01T07:01:09.919Z,5.36
2022-12-01T07:06:31.931Z,5.39
2022-12-01T07:11:52.524Z,5.37
2022-12-01T07:17:12.918Z,5.36
2022-12-01T07:22:33.808Z,5.38
2022-12-01T07:27:54.281Z,5.41
2022-12-01T07:33:15.369Z,5.41
2022-12-01T07:38:38.324Z,5.44
2022-12-01T07:43:59.068Z,5.42
2022-12-01T07:49:19.762Z,5.43
2022-12-01T07:54:40.655Z,5.47
2022-12-01T08:00:01.484Z,5.48
2022-12-01T08:05:32.334Z,5.49
2022-12-01T08:10:53.658Z,5.49
2022-12-01T08:16:16.339Z,5.49
2022-12-01T08:21:37.539Z,5.54
2022-12-01T08:26:58.360Z,5.52
2022-12-01T08:32:18.874Z,5.52
2022-12-01T08:37:39.408Z,5.55
2022-12-01T08:43:00.008Z,5.53
2022-12-01T08:48:20.709Z,5.53
2022-12-01T08:53:45.942Z,5.53
2022-12-01T08:59:06.851Z,5.51
2022-12-01T09:04:27.980Z,5.51
2022-12-01T09:09:48.457Z,5.49
2022-12-01T09:15:09.903Z,5.49
2022-12-01T09:20:30.402Z,5.50
2022-12-01T09:25:52.507Z,5.54
2022-12-01T09:31:14.339Z,5.55
2022-12-01T09:36:36.701Z,5.55
2022-12-01T09:42:09.270Z,5.57
2022-12-01T09:47:37.690Z,5.61
2022-12-01T09:53:05.971Z,5.64
2022-12-01T09:58:30.756Z,5.70
2022-12-01T10:03:57.310Z,5.75
2022-12-01T10:09:32.983Z,5.72
2022-12-01T10:15:00.735Z,5.76
2022-12-01T10:20:33.628Z,5.78
2022-12-01T10:26:09.726Z,5.78
2022-12-01T10:31:54.223Z,5.77
2022-12-01T10:37:20.172Z,5.77
2022-12-01T10:42:45.962Z,5.80
2022-12-01T10:48:10.864Z,5.83
2022-12-01T10:53:33.715Z,5.86
2022-12-01T10:58:57.336Z,5.87
2022-12-01T11:04:45.255Z,5.91
2022-12-01T11:10:20.847Z,5.97
2022-12-01T11:15:51.834Z,6.06
2022-12-01T11:21:26.392Z,6.21
2022-12-01T11:26:46.735Z,6.34
2022-12-01T11:32:18.786Z,6.57
2022-12-01T11:37:54.899Z,6.75
2022-12-01T11:43:35.004Z,6.78
2022-12-01T11:48:59.818Z,6.74
2022-12-01T11:54:25.996Z,6.98
2022-12-01T11:59:47.046Z,7.51
2022-12-01T12:05:49.088Z,7.27
2022-12-01T12:11:25.159Z,7.03
2022-12-01T12:16:55.606Z,6.94
2022-12-01T12:22:35.165Z,6.95
2022-12-01T12:28:17.112Z,6.94
2022-12-01T12:34:25.335Z,6.91
2022-12-01T12:40:09.487Z,6.81
2022-12-01T12:45:53.955Z,6.70
2022-12-01T12:51:24.939Z,6.57
2022-12-01T12:56:49.479Z,6.43
2022-12-01T13:02:20.012Z,6.34
2022-12-01T13:08:19.273Z,6.30
2022-12-01T13:13:54.646Z,6.26
2022-12-01T13:19:21.354Z,6.22
2022-12-01T13:24:42.420Z,6.22
2022-12-01T13:30:04.054Z,6.18
2022-12-01T13:35:39.691Z,6.17
2022-12-01T13:41:39.484Z,6.17
2022-12-01T13:47:21.214Z,6.20
2022-12-01T13:52:49.583Z,6.22
2022-12-01T13:58:14.064Z,6.22
2022-12-01T14:03:40.303Z,6.24
2022-12-01T14:09:05.059Z,6.25
2022-12-01T14:14:28.346Z,6.25
2022-12-01T14:19:53.999Z,6.23
2022-12-01T14:25:20.636Z,6.24
2022-12-01T14:30:45.727Z,6.24
2022-12-01T14:36:19.402Z,6.15
2022-12-01T14:41:47.599Z,6.14
2022-12-01T14:47:10.933Z,6.10
2022-12-01T14:52:42.217Z,6.09
2022-12-01T14:58:11.746Z,6.08
2022-12-01T15:03:36.973Z,6.09
2022-12-01T15:09:33.456Z,6.08
2022-12-01T15:14:54.746Z,6.03
2022-12-01T15:20:31.418Z,6.00
2022-12-01T15:25:52.103Z,5.94
2022-12-01T15:31:13.734Z,5.91
2022-12-01T15:36:37.597Z,5.89
2022-12-01T15:41:58.767Z,5.91
2022-12-01T15:47:43.010Z,5.90
2022-12-01T15:53:17.521Z,5.90
2022-12-01T15:58:45.174Z,5.91
2022-12-01T16:04:14.492Z,5.92
2022-12-01T16:09:43.318Z,5.90
2022-12-01T16:15:10.061Z,5.92
2022-12-01T16:20:39.219Z,5.91
2022-12-01T16:26:02.140Z,5.92
2022-12-01T16:31:25.763Z,5.90
2022-12-01T16:36:46.890Z,5.91
2022-12-01T16:42:11.857Z,5.90
2022-12-01T16:47:32.407Z,5.88
2022-12-01T16:52:53.073Z,5.85
2022-12-01T16:58:14.192Z,5.81
2022-12-01T17:03:36.686Z,5.82
2022-12-01T17:08:56.945Z,5.86
2022-12-01T17:14:17.364Z,5.82
2022-12-01T17:19:37.579Z,5.80
2022-12-01T17:24:59.366Z,5.82
2022-12-01T17:30:19.992Z,5.80
2022-12-01T17:35:40.830Z,5.79
2022-12-01T17:41:07.794Z,5.79
2022-12-01T17:46:28.263Z,5.78
2022-12-01T17:51:48.836Z,5.78
2022-12-01T17:57:10.242Z,5.77
2022-12-01T18:02:30.861Z,5.76
2022-12-01T18:07:51.779Z,5.74
2022-12-01T18:13:12.101Z,5.78
2022-12-01T18:18:32.327Z,5.76
2022-12-01T18:23:58.891Z,5.72
2022-12-01T18:29:25.840Z,5.75
2022-12-01T18:34:46.810Z,5.76
2022-12-01T18:40:08.491Z,5.71
2022-12-01T18:45:28.832Z,5.71
2022-12-01T18:50:52.608Z,5.66
2022-12-01T18:56:15.762Z,5.61
2022-12-01T19:01:43.827Z,5.58
2022-12-01T19:07:04.657Z,5.59
2022-12-01T19:12:25.465Z,5.58
2022-12-01T19:17:46.072Z,5.58
2022-12-01T19:23:06.676Z,5.57
2022-12-01T19:28:28.366Z,5.59
2022-12-01T19:33:49.960Z,5.64
2022-12-01T19:39:11.234Z,5.66
2022-12-01T19:44:31.940Z,5.62
2022-12-01T19:49:52.302Z,5.63
2022-12-01T19:55:12.952Z,5.61
2022-12-01T20:00:33.769Z,5.65
2022-12-01T20:05:54.337Z,5.63
2022-12-01T20:11:15.451Z,5.60
2022-12-01T20:16:36.413Z,5.61
2022-12-01T20:21:57.027Z,5.58
2022-12-01T20:27:17.415Z,5.55
2022-12-01T20:32:38.450Z,5.51
2022-12-01T20:37:59.043Z,5.53
2022-12-01T20:43:19.931Z,5.50
2022-12-01T20:48:40.367Z,5.51
2022-12-01T20:59:42.614Z,5.55
2022-12-01T21:05:03.401Z,5.58
2022-12-01T21:10:23.709Z,5.57
2022-12-01T21:16:01.860Z,5.53
2022-12-01T21:29:19.501Z,5.42
2022-12-01T21:34:40.367Z,5.38
2022-12-01T21:40:00.777Z,5.39
2022-12-01T21:45:31.990Z,5.39
2022-12-01T21:51:11.626Z,5.36
2022-12-01T21:56:32.601Z,5.34
2022-12-01T22:01:56.605Z,5.29
2022-12-01T22:07:18.033Z,5.29
2022-12-01T22:12:38.370Z,5.30
2022-12-01T22:17:58.980Z,5.26
2022-12-01T22:23:20.568Z,5.21
2022-12-01T22:28:40.923Z,5.23
2022-12-01T22:34:03.551Z,5.22
2022-12-01T22:39:33.872Z,5.20
2022-12-01T22:44:54.658Z,5.18
2022-12-01T22:50:32.980Z,5.18
2022-12-01T22:55:55.609Z,5.13
2022-12-01T23:01:27.252Z,5.11
2022-12-01T23:06:52.897Z,5.06
2022-12-01T23:12:13.143Z,5.04
2022-12-01T23:17:35.623Z,5.04
2022-12-01T23:22:57.524Z,5.04
2022-12-01T23:28:19.033Z,5.08
2022-12-01T23:33:40.069Z,5.13
2022-12-01T23:39:04.351Z,5.14
2022-12-01T23:44:37.548Z,5.17
2022-12-01T23:50:06.718Z,5.20
2022-12-01T23:55:29.170Z,5.17
